createdAt,value
2019-03-10T00:02:11.305Z,0.80
2019-03-10T00:04:44.289Z,0.53
2019-03-10T00:07:14.457Z,0.60
2019-03-10T00:09:45.261Z,0.60
2019-03-10T00:12:15.430Z,0.80
2019-03-10T00:14:45.598Z,0.70
2019-03-10T00:17:15.775Z,0.90
2019-03-10T00:19:46.184Z,0.60
2019-03-10T00:22:16.354Z,0.80
2019-03-10T00:24:46.532Z,0.60
2019-03-10T00:27:18.332Z,0.73
2019-03-10T00:29:48.581Z,0.53
2019-03-10T00:32:18.949Z,0.70
2019-03-10T00:34:49.924Z,0.70
2019-03-10T00:37:24.028Z,0.60
2019-03-10T00:40:24.468Z,0.50
2019-03-10T00:43:49.621Z,0.83
2019-03-10T00:46:59.788Z,0.53
2019-03-10T00:49:51.429Z,0.80
2019-03-10T00:52:26.487Z,0.50
2019-03-10T00:54:56.750Z,0.83
2019-03-10T00:57:26.953Z,0.60
2019-03-10T00:59:57.391Z,0.67
2019-03-10T01:02:27.892Z,0.67
2019-03-10T01:04:58.268Z,0.60
2019-03-10T01:07:28.724Z,0.60
2019-03-10T01:09:59.400Z,0.60
2019-03-10T01:12:29.793Z,0.60
2019-03-10T01:15:00.346Z,0.77
2019-03-10T01:17:30.690Z,0.90
2019-03-10T01:20:01.165Z,0.50
2019-03-10T01:22:31.874Z,0.50
2019-03-10T01:25:02.038Z,0.53
2019-03-10T01:27:32.504Z,0.63
2019-03-10T01:30:02.973Z,0.60
2019-03-10T01:33:09.859Z,0.57
2019-03-10T01:35:40.100Z,0.60
2019-03-10T01:38:10.282Z,0.60
2019-03-10T01:40:40.628Z,0.60
2019-03-10T01:43:10.796Z,0.60
2019-03-10T01:45:41.001Z,0.50
2019-03-10T01:48:11.207Z,0.50
2019-03-10T01:50:41.421Z,0.50
2019-03-10T01:53:11.720Z,0.60
2019-03-10T01:55:41.873Z,0.40
2019-03-10T01:58:12.103Z,0.60
2019-03-10T02:00:42.269Z,0.70
2019-03-10T02:03:12.571Z,0.40
2019-03-10T02:05:42.742Z,0.60
2019-03-10T02:08:12.921Z,0.50
2019-03-10T02:10:43.081Z,0.50
2019-03-10T02:13:13.411Z,0.40
2019-03-10T02:15:43.588Z,0.33
2019-03-10T02:18:13.834Z,0.57
2019-03-10T02:20:43.993Z,0.50
2019-03-10T02:23:14.223Z,0.57
2019-03-10T02:25:44.591Z,0.50
2019-03-10T02:28:14.788Z,0.43
2019-03-10T02:30:44.956Z,0.50
2019-03-10T02:33:15.501Z,0.53
2019-03-10T02:35:45.831Z,0.70
2019-03-10T02:38:16.035Z,0.50
2019-03-10T02:40:46.200Z,0.50
2019-03-10T02:43:16.408Z,0.70
2019-03-10T02:45:46.577Z,0.30
2019-03-10T02:48:16.786Z,0.60
2019-03-10T02:50:46.943Z,0.30
2019-03-10T02:53:17.173Z,0.60
2019-03-10T02:55:47.342Z,0.50
2019-03-10T02:58:17.584Z,0.60
2019-03-10T03:00:48.844Z,0.60
2019-03-10T03:03:19.993Z,0.40
2019-03-10T03:05:50.202Z,0.30
2019-03-10T03:08:20.470Z,0.40
2019-03-10T03:10:50.661Z,0.30
2019-03-10T03:13:20.837Z,0.40
2019-03-10T03:15:51.038Z,0.40
2019-03-10T03:18:22.326Z,0.40
2019-03-10T03:20:52.496Z,0.20
2019-03-10T03:23:23.675Z,0.33
2019-03-10T03:25:53.861Z,0.27
2019-03-10T03:28:24.070Z,0.40
2019-03-10T03:30:54.243Z,0.33
2019-03-10T03:33:24.800Z,0.30
2019-03-10T03:35:59.071Z,0.30
2019-03-10T03:38:42.744Z,0.50
2019-03-10T03:41:24.783Z,0.37
2019-03-10T03:43:54.965Z,0.50
2019-03-10T03:46:25.155Z,0.33
2019-03-10T03:48:55.396Z,0.40
2019-03-10T03:51:25.547Z,0.37
2019-03-10T03:53:55.752Z,0.30
2019-03-10T03:56:25.954Z,0.30
2019-03-10T03:58:56.181Z,0.57
2019-03-10T04:01:30.722Z,0.40
2019-03-10T04:04:01.977Z,0.37
2019-03-10T04:06:32.194Z,0.40
2019-03-10T04:09:02.398Z,0.37
2019-03-10T04:11:33.074Z,0.27
2019-03-10T04:14:03.615Z,0.40
2019-03-10T04:16:33.827Z,0.40
2019-03-10T04:19:04.057Z,0.30
2019-03-10T04:21:34.265Z,0.40
2019-03-10T04:24:05.638Z,0.23
2019-03-10T04:26:35.838Z,0.50
2019-03-10T04:29:06.084Z,0.40
2019-03-10T04:31:36.306Z,0.50
2019-03-10T04:34:06.706Z,0.30
2019-03-10T04:36:36.900Z,0.20
2019-03-10T04:39:07.167Z,0.40
2019-03-10T04:41:37.369Z,0.20
2019-03-10T04:44:07.623Z,0.30
2019-03-10T04:46:37.785Z,0.30
2019-03-10T04:49:09.063Z,0.50
2019-03-10T04:51:39.241Z,0.30
2019-03-10T04:54:09.472Z,0.30
2019-03-10T04:56:41.300Z,0.30
2019-03-10T04:59:11.505Z,0.70
2019-03-10T05:01:41.688Z,0.30
2019-03-10T05:04:11.860Z,0.30
2019-03-10T05:06:42.069Z,0.30
2019-03-10T05:09:12.285Z,0.30
2019-03-10T05:11:42.451Z,0.30
2019-03-10T05:14:12.702Z,0.30
2019-03-10T05:16:42.878Z,0.20
2019-03-10T05:19:13.096Z,0.30
2019-03-10T05:21:43.268Z,0.40
2019-03-10T05:24:14.702Z,0.30
2019-03-10T05:26:44.880Z,0.27
2019-03-10T05:29:15.081Z,0.20
2019-03-10T05:31:45.288Z,0.20
2019-03-10T05:34:15.534Z,0.20
2019-03-10T05:36:45.714Z,0.20
2019-03-10T05:39:15.897Z,0.20
2019-03-10T05:41:46.151Z,0.20
2019-03-10T05:44:16.353Z,0.20
2019-03-10T05:46:46.529Z,0.20
2019-03-10T05:49:16.668Z,0.20
2019-03-10T05:51:46.892Z,0.23
2019-03-10T05:54:17.069Z,0.30
2019-03-10T05:56:47.287Z,0.30
2019-03-10T05:59:17.476Z,0.30
2019-03-10T06:01:47.674Z,0.10
2019-03-10T06:04:17.822Z,0.33
2019-03-10T06:06:48.038Z,0.20
2019-03-10T06:09:18.202Z,0.20
2019-03-10T06:11:48.390Z,0.20
2019-03-10T06:14:18.676Z,0.20
2019-03-10T06:16:48.904Z,0.30
2019-03-10T06:19:19.106Z,0.20
2019-03-10T06:21:49.302Z,0.20
2019-03-10T06:24:19.644Z,0.30
2019-03-10T06:26:49.832Z,0.23
2019-03-10T06:29:20.048Z,0.20
2019-03-10T06:31:51.346Z,0.30
2019-03-10T06:34:21.721Z,0.10
2019-03-10T06:36:51.992Z,0.20
2019-03-10T06:39:22.151Z,0.10
2019-03-10T06:41:52.320Z,0.20
2019-03-10T06:44:22.492Z,0.20
2019-03-10T06:46:52.701Z,0.20
2019-03-10T06:49:23.271Z,0.20
2019-03-10T06:51:53.514Z,0.20
2019-03-10T06:54:23.659Z,0.17
2019-03-10T06:56:53.997Z,0.20
2019-03-10T06:59:24.202Z,0.30
2019-03-10T07:01:54.435Z,0.20
2019-03-10T07:04:24.661Z,0.20
2019-03-10T07:06:54.853Z,0.20
2019-03-10T07:09:25.025Z,0.10
2019-03-10T07:11:55.204Z,0.10
2019-03-10T07:14:25.394Z,0.10
2019-03-10T07:16:55.574Z,0.20
2019-03-10T07:19:25.737Z,0.10
2019-03-10T07:21:56.042Z,0.30
2019-03-10T07:24:27.355Z,0.20
2019-03-10T07:26:57.551Z,0.20
2019-03-10T07:29:29.364Z,0.10
2019-03-10T07:32:17.453Z,0.10
2019-03-10T07:34:49.260Z,0.03
2019-03-10T07:37:21.122Z,0.10
2019-03-10T07:39:58.870Z,0.33
2019-03-10T07:42:36.264Z,2.43
2019-03-10T07:45:19.483Z,2.13
2019-03-10T07:48:09.476Z,1.93
2019-03-10T07:50:44.386Z,2.50
2019-03-10T07:53:18.858Z,2.47
2019-03-10T07:55:59.974Z,2.30
2019-03-10T07:58:37.484Z,2.43
2019-03-10T08:01:25.550Z,3.03
2019-03-10T08:03:57.359Z,2.73
2019-03-10T08:06:35.355Z,2.97
2019-03-10T08:09:12.515Z,2.63
2019-03-10T08:12:15.972Z,2.77
2019-03-10T08:14:59.710Z,2.67
2019-03-10T08:17:47.896Z,3.03
2019-03-10T08:20:22.685Z,2.70
2019-03-10T08:22:54.540Z,2.50
2019-03-10T08:25:35.214Z,2.30
2019-03-10T08:28:07.134Z,2.50
2019-03-10T08:30:50.831Z,2.97
2019-03-10T08:33:22.712Z,2.50
2019-03-10T08:35:54.972Z,2.27
2019-03-10T08:38:26.889Z,2.73
2019-03-10T08:41:17.600Z,0.80
2019-03-10T08:43:49.465Z,0.37
2019-03-10T08:46:39.110Z,0.47
2019-03-10T08:49:19.813Z,0.70
2019-03-10T08:51:51.672Z,0.80
2019-03-10T08:54:23.481Z,0.80
2019-03-10T08:57:04.791Z,0.80
2019-03-10T08:59:36.639Z,1.10
2019-03-10T09:02:23.160Z,1.07
2019-03-10T09:05:11.148Z,1.00
2019-03-10T09:07:45.393Z,1.13
2019-03-10T09:10:18.387Z,1.07
2019-03-10T09:12:56.141Z,1.10
2019-03-10T09:15:44.164Z,1.07
2019-03-10T09:18:32.124Z,1.20
2019-03-10T09:21:20.100Z,1.00
2019-03-10T09:24:00.724Z,1.07
2019-03-10T09:26:41.680Z,1.00
2019-03-10T09:29:13.526Z,0.93
2019-03-10T09:31:57.441Z,1.23
2019-03-10T09:34:29.321Z,1.00
2019-03-10T09:37:10.132Z,1.00
2019-03-10T09:39:48.006Z,0.93
2019-03-10T09:42:37.512Z,1.00
2019-03-10T09:45:26.630Z,0.93
2019-03-10T09:48:04.332Z,1.00
2019-03-10T09:50:42.398Z,0.90
2019-03-10T09:53:20.090Z,0.83
2019-03-10T09:55:52.026Z,1.00
2019-03-10T09:58:26.741Z,0.93
2019-03-10T10:01:01.506Z,1.30
2019-03-10T10:03:39.433Z,1.27
2019-03-10T10:06:26.453Z,1.10
2019-03-10T10:09:07.301Z,1.00
2019-03-10T10:11:54.277Z,1.00
2019-03-10T10:14:43.277Z,0.90
2019-03-10T10:17:17.746Z,0.70
2019-03-10T10:19:52.436Z,0.90
2019-03-10T10:22:30.335Z,0.90
2019-03-10T10:25:02.197Z,1.00
2019-03-10T10:27:34.163Z,0.70
2019-03-10T10:30:20.613Z,0.80
2019-03-10T10:32:53.600Z,0.80
2019-03-10T10:35:35.019Z,0.90
2019-03-10T10:38:18.945Z,0.67
2019-03-10T10:41:01.411Z,0.70
2019-03-10T10:43:49.718Z,0.67
2019-03-10T10:46:21.543Z,0.80
2019-03-10T10:49:00.938Z,0.60
2019-03-10T10:51:45.071Z,0.70
2019-03-10T10:54:18.960Z,0.60
2019-03-10T10:56:56.792Z,0.50
2019-03-10T10:59:44.947Z,0.60
2019-03-10T11:02:20.860Z,0.93
2019-03-10T11:04:58.682Z,0.60
2019-03-10T11:07:33.096Z,0.77
2019-03-10T11:10:09.097Z,0.40
2019-03-10T11:12:49.975Z,0.40
2019-03-10T11:15:24.476Z,0.40
2019-03-10T11:18:08.918Z,0.40
2019-03-10T11:20:39.138Z,0.60
2019-03-10T11:23:24.818Z,0.50
2019-03-10T11:26:08.932Z,0.60
2019-03-10T11:28:48.744Z,0.40
2019-03-10T11:31:20.516Z,0.37
2019-03-10T11:33:52.304Z,0.50
2019-03-10T11:36:47.939Z,0.30
2019-03-10T11:39:20.689Z,0.40
2019-03-10T11:41:52.461Z,0.40
2019-03-10T11:44:46.225Z,0.47
2019-03-10T11:47:23.685Z,0.30
2019-03-10T11:49:55.592Z,0.40
2019-03-10T11:52:27.378Z,0.20
2019-03-10T11:54:59.213Z,0.30
2019-03-10T11:57:33.648Z,0.27
2019-03-10T12:00:31.797Z,0.30
2019-03-10T12:03:06.787Z,0.30
2019-03-10T12:06:00.598Z,0.30
2019-03-10T12:08:35.113Z,0.23
2019-03-10T12:11:05.669Z,0.30
2019-03-10T12:13:35.783Z,0.20
2019-03-10T12:16:06.008Z,0.60
2019-03-10T12:18:36.183Z,0.20
2019-03-10T12:21:09.595Z,0.20
2019-03-10T12:23:39.720Z,0.30
2019-03-10T12:26:11.801Z,0.40
2019-03-10T12:28:42.008Z,0.23
2019-03-10T12:31:12.215Z,0.20
2019-03-10T12:33:42.370Z,0.20
2019-03-10T12:36:12.501Z,0.27
2019-03-10T12:38:42.658Z,0.30
2019-03-10T12:41:14.378Z,0.30
2019-03-10T12:43:44.487Z,0.30
2019-03-10T12:46:14.615Z,0.30
2019-03-10T12:48:44.734Z,0.30
2019-03-10T12:51:14.855Z,0.20
2019-03-10T12:53:45.258Z,0.30
2019-03-10T12:56:17.022Z,0.20
2019-03-10T12:58:47.164Z,0.27
2019-03-10T13:01:17.286Z,0.20
2019-03-10T13:03:58.025Z,0.30
2019-03-10T13:06:19.235Z,0.23
2019-03-10T13:08:49.368Z,0.20
2019-03-10T13:11:19.518Z,0.20
2019-03-10T13:13:51.613Z,0.40
2019-03-10T13:16:22.746Z,0.27
2019-03-10T13:18:53.787Z,0.20
2019-03-10T13:21:25.921Z,0.10
2019-03-10T13:23:55.705Z,0.23
2019-03-10T13:26:25.844Z,0.20
2019-03-10T13:28:55.954Z,0.30
2019-03-10T13:31:26.140Z,0.20
2019-03-10T13:33:56.261Z,0.30
2019-03-10T13:36:26.397Z,0.17
2019-03-10T13:38:57.497Z,0.20
2019-03-10T13:41:27.673Z,0.33
2019-03-10T13:43:57.891Z,0.17
2019-03-10T13:46:27.982Z,0.10
2019-03-10T13:48:58.116Z,0.13
2019-03-10T13:51:28.240Z,0.53
2019-03-10T13:53:58.369Z,0.20
2019-03-10T13:56:28.506Z,0.30
2019-03-10T13:58:58.626Z,0.20
2019-03-10T14:01:28.748Z,0.30
2019-03-10T14:04:00.233Z,0.30
2019-03-10T14:06:30.481Z,0.20
2019-03-10T14:09:00.602Z,0.13
2019-03-10T14:11:32.381Z,0.30
2019-03-10T14:14:02.523Z,0.30
2019-03-10T14:16:32.707Z,0.40
2019-03-10T14:19:02.850Z,0.30
2019-03-10T14:21:32.904Z,0.20
2019-03-10T14:24:03.060Z,0.20
2019-03-10T14:26:34.093Z,0.20
2019-03-10T14:29:23.749Z,0.27
2019-03-10T14:31:54.069Z,0.20
2019-03-10T14:34:24.195Z,0.20
2019-03-10T14:36:54.335Z,0.57
2019-03-10T14:39:25.563Z,0.20
2019-03-10T14:41:56.066Z,0.20
2019-03-10T14:44:26.234Z,0.30
2019-03-10T14:46:57.453Z,0.13
2019-03-10T14:49:31.379Z,0.30
2019-03-10T14:52:01.989Z,0.20
2019-03-10T14:54:32.169Z,0.20
